createdAt,value
2018-05-04T00:01:09.362Z,68.30
2018-05-04T00:03:38.477Z,68.20
2018-05-04T00:06:07.486Z,67.80
2018-05-04T00:08:35.729Z,67.80
2018-05-04T00:11:03.969Z,67.50
2018-05-04T00:13:32.224Z,67.90
2018-05-04T00:16:00.453Z,67.90
2018-05-04T00:18:28.711Z,66.90
2018-05-04T00:20:56.956Z,66.70
2018-05-04T00:23:25.229Z,67.00
2018-05-04T00:25:53.516Z,66.30
2018-05-04T00:28:21.734Z,66.20
2018-05-04T00:30:50.752Z,67.10
2018-05-04T00:33:19.745Z,65.60
2018-05-04T00:35:47.987Z,65.60
2018-05-04T00:38:16.225Z,66.00
2018-05-04T00:40:44.469Z,65.90
2018-05-04T00:43:12.716Z,65.40
2018-05-04T00:45:40.950Z,65.70
2018-05-04T00:48:09.210Z,66.00
2018-05-04T00:50:37.465Z,66.00
2018-05-04T00:53:06.462Z,66.40
2018-05-04T00:55:35.478Z,66.00
2018-05-04T00:58:03.709Z,65.80
2018-05-04T01:00:32.743Z,66.20
2018-05-04T01:03:00.981Z,65.90
2018-05-04T01:05:29.989Z,65.70
2018-05-04T01:07:58.986Z,65.70
2018-05-04T01:10:27.234Z,65.70
2018-05-04T01:12:55.466Z,65.90
2018-05-04T01:15:23.817Z,65.60
2018-05-04T01:17:52.822Z,65.60
2018-05-04T01:20:21.051Z,65.60
2018-05-04T01:22:49.299Z,65.60
2018-05-04T01:25:17.537Z,65.30
2018-05-04T01:27:45.782Z,65.20
2018-05-04T01:30:14.390Z,65.80
2018-05-04T01:32:43.395Z,65.30
2018-05-04T01:35:11.631Z,65.20
2018-05-04T01:37:40.134Z,65.60
2018-05-04T01:40:09.146Z,65.90
2018-05-04T01:42:37.390Z,65.90
2018-05-04T01:45:05.641Z,65.90
2018-05-04T01:47:33.878Z,66.20
2018-05-04T01:50:02.127Z,65.40
2018-05-04T01:52:31.141Z,65.70
2018-05-04T01:54:59.379Z,65.60
2018-05-04T01:57:27.686Z,65.70
2018-05-04T01:59:55.929Z,66.10
2018-05-04T02:02:24.177Z,65.70
2018-05-04T02:04:52.407Z,65.90
2018-05-04T02:07:21.425Z,65.20
2018-05-04T02:09:49.653Z,65.20
2018-05-04T02:12:17.906Z,65.20
2018-05-04T02:14:46.137Z,65.60
2018-05-04T02:17:14.381Z,65.90
2018-05-04T02:19:43.397Z,65.10
2018-05-04T02:22:11.631Z,65.60
2018-05-04T02:24:39.857Z,65.70
2018-05-04T02:27:08.101Z,65.60
2018-05-04T02:29:37.151Z,66.70
2018-05-04T02:32:05.397Z,65.90
2018-05-04T02:34:34.334Z,65.20
2018-05-04T02:37:02.581Z,65.00
2018-05-04T02:39:31.099Z,65.00
2018-05-04T02:41:59.322Z,65.00
2018-05-04T02:44:27.556Z,64.80
2018-05-04T02:46:55.804Z,64.70
2018-05-04T02:49:24.049Z,65.00
2018-05-04T02:51:52.294Z,65.20
2018-05-04T02:54:20.552Z,65.50
2018-05-04T02:56:48.771Z,65.30
2018-05-04T02:59:17.018Z,65.30
2018-05-04T03:01:45.253Z,65.40
2018-05-04T03:04:13.506Z,65.70
2018-05-04T03:06:41.741Z,65.80
2018-05-04T03:09:09.974Z,65.90
2018-05-04T03:11:38.319Z,66.00
2018-05-04T03:14:07.321Z,65.30
2018-05-04T03:16:35.569Z,65.30
2018-05-04T03:19:04.575Z,65.40
2018-05-04T03:21:33.585Z,65.60
2018-05-04T03:24:01.855Z,65.50
2018-05-04T03:26:30.106Z,65.90
2018-05-04T03:28:58.360Z,65.80
2018-05-04T03:31:26.589Z,66.00
2018-05-04T03:33:54.841Z,66.10
2018-05-04T03:36:23.837Z,65.80
2018-05-04T03:38:52.854Z,65.90
2018-05-04T03:41:21.085Z,65.70
2018-05-04T03:43:49.329Z,65.90
2018-05-04T03:46:17.565Z,66.10
2018-05-04T03:48:45.797Z,66.10
2018-05-04T03:51:14.049Z,66.20
2018-05-04T03:53:42.305Z,66.70
2018-05-04T03:56:10.549Z,66.80
2018-05-04T03:58:57.357Z,67.50
2018-05-04T04:01:44.592Z,68.00
2018-05-04T04:04:13.653Z,68.00
2018-05-04T04:06:41.886Z,68.00
2018-05-04T04:09:10.146Z,68.60
2018-05-04T04:11:38.402Z,69.00
2018-05-04T04:14:06.634Z,69.10
2018-05-04T04:16:34.877Z,69.60
2018-05-04T04:19:03.171Z,69.60
2018-05-04T04:21:31.434Z,69.70
2018-05-04T04:24:00.516Z,69.70
2018-05-04T04:26:28.762Z,69.80
2018-05-04T04:28:58.517Z,69.90
2018-05-04T04:31:26.774Z,69.90
2018-05-04T04:33:55.795Z,69.80
2018-05-04T04:36:24.030Z,69.60
2018-05-04T04:38:53.067Z,70.20
2018-05-04T04:41:21.288Z,70.10
2018-05-04T04:43:49.525Z,70.30
2018-05-04T04:46:17.793Z,70.40
2018-05-04T04:48:46.025Z,70.70
2018-05-04T04:51:15.034Z,71.00
2018-05-04T04:53:44.159Z,70.50
2018-05-04T04:56:12.431Z,70.60
2018-05-04T04:58:40.666Z,70.50
2018-05-04T05:01:09.674Z,71.10
2018-05-04T05:03:37.936Z,70.90
2018-05-04T05:06:06.193Z,71.00
2018-05-04T05:08:34.433Z,71.70
2018-05-04T05:11:02.982Z,70.50
2018-05-04T05:13:32.056Z,71.30
2018-05-04T05:16:00.228Z,71.20
2018-05-04T05:18:28.775Z,71.40
2018-05-04T05:20:57.011Z,71.30
2018-05-04T05:23:26.020Z,71.40
2018-05-04T05:25:54.271Z,71.40
2018-05-04T05:28:23.270Z,72.00
2018-05-04T05:30:52.277Z,72.30
2018-05-04T05:33:20.525Z,72.10
2018-05-04T05:35:49.524Z,72.20
2018-05-04T05:38:18.546Z,71.80
2018-05-04T05:40:46.782Z,71.70
2018-05-04T05:43:15.816Z,73.00
2018-05-04T05:45:44.062Z,71.90
2018-05-04T05:48:13.174Z,71.10
2018-05-04T05:50:41.422Z,71.10
2018-05-04T05:53:09.666Z,71.20
2018-05-04T05:55:37.922Z,71.20
2018-05-04T05:58:06.186Z,70.90
2018-05-04T06:00:35.266Z,70.60
2018-05-04T06:03:03.526Z,70.60
2018-05-04T06:05:32.526Z,69.90
2018-05-04T06:08:01.548Z,69.80
2018-05-04T06:10:29.788Z,69.80
2018-05-04T06:12:58.789Z,69.40
2018-05-04T06:15:27.819Z,69.20
2018-05-04T06:17:56.065Z,69.10
2018-05-04T06:20:25.087Z,69.80
2018-05-04T06:22:53.360Z,69.80
2018-05-04T06:25:21.585Z,69.60
2018-05-04T06:27:49.916Z,69.40
2018-05-04T06:30:18.162Z,69.50
2018-05-04T06:32:46.489Z,69.60
2018-05-04T06:35:14.662Z,70.00
2018-05-04T06:37:43.189Z,70.30
2018-05-04T06:40:12.197Z,69.90
2018-05-04T06:42:40.433Z,69.90
2018-05-04T06:45:08.685Z,69.70
2018-05-04T06:47:36.934Z,70.20
2018-05-04T06:50:05.171Z,69.90
2018-05-04T06:52:34.281Z,70.90
2018-05-04T06:55:03.295Z,69.80
2018-05-04T06:57:31.542Z,69.60
2018-05-04T07:00:00.549Z,69.90
2018-05-04T07:02:29.234Z,69.90
2018-05-04T07:04:57.482Z,69.90
2018-05-04T07:07:25.725Z,70.10
2018-05-04T07:09:53.983Z,70.00
2018-05-04T07:12:22.233Z,68.90
2018-05-04T07:14:51.245Z,69.40
2018-05-04T07:17:19.508Z,69.40
2018-05-04T07:19:47.734Z,69.50
2018-05-04T07:22:15.994Z,69.70
2018-05-04T07:24:44.230Z,68.80
2018-05-04T07:27:12.477Z,68.70
2018-05-04T07:29:40.722Z,68.50
2018-05-04T07:32:08.971Z,68.60
2018-05-04T07:34:37.206Z,68.20
2018-05-04T07:37:05.458Z,68.30
2018-05-04T07:39:33.697Z,68.20
2018-05-04T07:42:01.966Z,68.80
2018-05-04T07:44:30.229Z,67.80
2018-05-04T07:46:59.234Z,68.30
2018-05-04T07:49:27.486Z,68.30
2018-05-04T07:51:56.505Z,67.70
2018-05-04T07:54:24.745Z,67.60
2018-05-04T07:56:53.769Z,68.10
2018-05-04T07:59:22.786Z,67.90
2018-05-04T08:01:51.022Z,67.90
2018-05-04T08:04:20.028Z,68.50
2018-05-04T08:06:48.333Z,69.10
2018-05-04T08:09:16.575Z,68.00
2018-05-04T08:11:45.578Z,67.90
2018-05-04T08:14:13.833Z,67.80
2018-05-04T08:16:42.855Z,69.10
2018-05-04T08:19:11.097Z,69.00
2018-05-04T08:21:40.151Z,68.80
2018-05-04T08:24:08.370Z,68.60
2018-05-04T08:26:37.373Z,69.50
2018-05-04T08:29:06.396Z,69.00
2018-05-04T08:31:34.651Z,68.90
2018-05-04T08:34:03.660Z,69.30
2018-05-04T08:36:31.914Z,69.30
2018-05-04T08:39:00.913Z,70.00
2018-05-04T08:41:29.170Z,70.00
2018-05-04T08:43:58.198Z,70.10
2018-05-04T08:46:26.434Z,70.00
2018-05-04T08:48:55.445Z,70.50
2018-05-04T08:51:24.471Z,70.20
2018-05-04T08:53:52.709Z,70.20
2018-05-04T08:56:21.709Z,70.10
2018-05-04T08:58:50.734Z,70.00
2018-05-04T09:01:19.004Z,69.90
2018-05-04T09:03:47.233Z,70.20
2018-05-04T09:06:15.476Z,69.50
2018-05-04T09:08:43.717Z,70.00
2018-05-04T09:11:11.954Z,70.50
2018-05-04T09:13:40.198Z,70.40
2018-05-04T09:16:08.433Z,70.80
2018-05-04T09:18:36.709Z,70.70
2018-05-04T09:21:05.714Z,71.80
2018-05-04T09:23:33.979Z,71.70
2018-05-04T09:26:02.991Z,71.60
2018-05-04T09:28:31.242Z,71.50
2018-05-04T09:31:00.268Z,71.70
2018-05-04T09:33:28.501Z,71.70
2018-05-04T09:35:57.510Z,72.30
2018-05-04T09:38:25.745Z,72.20
2018-05-04T09:40:54.129Z,72.20
2018-05-04T09:43:22.387Z,71.70
2018-05-04T09:45:50.602Z,71.60
2018-05-04T09:48:19.628Z,71.80
2018-05-04T09:50:47.862Z,71.80
2018-05-04T09:53:16.869Z,72.10
2018-05-04T09:55:45.886Z,73.00
2018-05-04T09:58:14.125Z,72.90
2018-05-04T10:00:42.375Z,73.00
2018-05-04T10:03:10.622Z,73.00
2018-05-04T10:05:38.868Z,73.10
2018-05-04T10:08:07.886Z,73.00
2018-05-04T10:10:36.138Z,72.90
2018-05-04T10:13:05.142Z,73.20
2018-05-04T10:15:33.390Z,73.10
2018-05-04T10:18:02.403Z,73.40
2018-05-04T10:20:30.673Z,73.20
2018-05-04T10:22:59.675Z,73.30
2018-05-04T10:25:28.282Z,73.30
2018-05-04T10:27:56.509Z,73.20
2018-05-04T10:30:24.746Z,73.30
2018-05-04T10:32:52.998Z,73.10
2018-05-04T10:35:21.234Z,72.80
2018-05-04T10:37:50.256Z,72.60
2018-05-04T10:40:18.571Z,72.60
2018-05-04T10:42:46.809Z,72.40
2018-05-04T10:45:15.148Z,72.60
2018-05-04T10:47:44.092Z,72.60
2018-05-04T10:50:12.338Z,72.60
2018-05-04T10:52:41.337Z,72.50
2018-05-04T10:55:09.592Z,72.40
2018-05-04T10:57:38.604Z,72.00
2018-05-04T11:00:07.609Z,72.20
2018-05-04T11:02:35.865Z,72.20
2018-05-04T11:05:04.887Z,72.50
2018-05-04T11:07:33.141Z,72.50
2018-05-04T11:10:02.153Z,72.30
2018-05-04T11:12:30.401Z,72.20
2018-05-04T11:14:59.406Z,72.30
2018-05-04T11:17:27.662Z,72.20
2018-05-04T11:19:55.917Z,72.50
2018-05-04T11:22:24.169Z,72.60
2018-05-04T11:24:52.410Z,72.50
2018-05-04T11:27:20.649Z,72.30
2018-05-04T11:29:48.910Z,72.30
2018-05-04T11:32:17.153Z,72.10
2018-05-04T11:34:45.396Z,72.10
2018-05-04T11:37:14.427Z,71.90
2018-05-04T11:39:42.657Z,71.90
2018-05-04T11:42:11.697Z,72.00
2018-05-04T11:44:39.937Z,72.00
2018-05-04T11:47:08.941Z,71.70
2018-05-04T11:49:37.265Z,71.70
2018-05-04T11:52:06.209Z,71.70
2018-05-04T11:54:34.458Z,71.60
2018-05-04T11:57:02.703Z,72.00
2018-05-04T11:59:30.949Z,71.70
2018-05-04T12:01:59.206Z,71.30
2018-05-04T12:04:28.206Z,70.70
2018-05-04T12:06:56.458Z,70.70
2018-05-04T12:09:25.471Z,71.80
2018-05-04T12:11:54.491Z,70.80
2018-05-04T12:14:22.726Z,70.80
2018-05-04T12:16:51.754Z,71.60
2018-05-04T12:19:20.022Z,71.60
2018-05-04T12:21:48.261Z,71.30
2018-05-04T12:24:16.499Z,71.30
2018-05-04T12:26:44.750Z,70.80
2018-05-04T12:29:12.990Z,70.90
2018-05-04T12:31:41.235Z,71.20
2018-05-04T12:34:09.489Z,70.80
2018-05-04T12:36:37.724Z,71.30
2018-05-04T12:39:06.742Z,71.40
2018-05-04T12:41:35.001Z,71.30
2018-05-04T12:44:04.032Z,71.00
2018-05-04T12:46:32.268Z,71.00
2018-05-04T12:49:01.274Z,70.60
2018-05-04T12:51:29.647Z,70.60
2018-05-04T12:53:58.659Z,71.90
2018-05-04T12:56:26.929Z,71.80
2018-05-04T12:58:55.187Z,71.00
2018-05-04T13:01:24.183Z,70.80
2018-05-04T13:03:53.205Z,71.10
2018-05-04T13:06:21.471Z,71.20
2018-05-04T13:08:49.714Z,69.80
2018-05-04T13:11:17.950Z,69.50
2018-05-04T13:13:46.203Z,69.70
2018-05-04T13:16:14.438Z,68.40
2018-05-04T13:18:42.685Z,67.60
2018-05-04T13:21:11.121Z,67.50
2018-05-04T13:23:39.362Z,67.90
2018-05-04T13:26:07.593Z,67.20
2018-05-04T13:28:35.861Z,65.90
2018-05-04T13:31:04.094Z,66.10
2018-05-04T13:33:33.127Z,65.50
2018-05-04T13:36:01.409Z,64.70
2018-05-04T13:38:29.629Z,64.80
2018-05-04T13:40:57.890Z,64.70
2018-05-04T13:43:26.122Z,65.50
2018-05-04T13:45:54.366Z,65.20
2018-05-04T13:48:23.378Z,65.80
2018-05-04T13:50:52.484Z,65.60
2018-05-04T13:53:20.637Z,65.50
2018-05-04T13:55:49.654Z,66.40
2018-05-04T13:58:18.017Z,66.40
2018-05-04T14:00:47.037Z,66.00
2018-05-04T14:03:15.285Z,66.00
2018-05-04T14:05:44.306Z,65.80
2018-05-04T14:08:12.548Z,65.70
2018-05-04T14:10:41.582Z,65.30
2018-05-04T14:13:09.826Z,65.20
2018-05-04T14:15:38.830Z,64.60
2018-05-04T14:18:07.097Z,64.50
2018-05-04T14:20:35.330Z,65.00
2018-05-04T14:23:03.850Z,65.20
2018-05-04T14:25:32.851Z,65.10
2018-05-04T14:28:01.100Z,65.00
2018-05-04T14:30:29.350Z,64.90
2018-05-04T14:32:57.599Z,64.10
2018-05-04T14:35:25.830Z,64.10
2018-05-04T14:37:54.870Z,63.90
2018-05-04T14:40:23.113Z,63.90
2018-05-04T14:42:52.156Z,63.40
2018-05-04T14:45:20.390Z,63.40
2018-05-04T14:47:48.639Z,63.00
2018-05-04T14:50:17.247Z,63.80
2018-05-04T14:52:46.249Z,62.40
2018-05-04T14:55:14.486Z,62.50
2018-05-04T14:57:43.731Z,62.80
2018-05-04T15:00:11.986Z,62.90
2018-05-04T15:02:40.994Z,63.70
2018-05-04T15:05:09.383Z,63.60
2018-05-04T15:07:37.610Z,64.00
2018-05-04T15:10:06.630Z,64.10
2018-05-04T15:12:34.873Z,64.70
2018-05-04T15:15:03.355Z,64.70
2018-05-04T15:17:31.593Z,64.90
2018-05-04T15:19:59.833Z,64.70
2018-05-04T15:22:28.848Z,65.50
2018-05-04T15:24:57.111Z,64.70
2018-05-04T15:27:26.104Z,64.70
2018-05-04T15:29:54.349Z,64.70
2018-05-04T15:32:22.606Z,64.60
2018-05-04T15:34:50.886Z,64.60
2018-05-04T15:37:19.113Z,64.50
2018-05-04T15:39:47.356Z,63.90
2018-05-04T15:42:16.373Z,63.50
2018-05-04T15:44:44.631Z,64.00
2018-05-04T15:47:13.637Z,64.00
2018-05-04T15:49:41.898Z,63.90
2018-05-04T15:52:10.924Z,64.00
2018-05-04T15:54:39.206Z,63.90
2018-05-04T15:57:07.410Z,64.50
2018-05-04T15:59:35.653Z,64.90
2018-05-04T16:02:03.889Z,65.30
2018-05-04T16:04:32.922Z,65.50
2018-05-04T16:07:01.175Z,65.40
2018-05-04T16:09:30.181Z,65.10
2018-05-04T16:11:58.429Z,65.00
2018-05-04T16:14:27.746Z,65.30
2018-05-04T16:16:55.994Z,65.30
2018-05-04T16:19:24.233Z,64.80
2018-05-04T16:21:52.491Z,64.40
2018-05-04T16:24:20.729Z,64.70
2018-05-04T16:26:49.754Z,65.30
2018-05-04T16:29:18.321Z,65.20
2018-05-04T16:31:47.325Z,64.70
2018-05-04T16:34:15.561Z,64.70
2018-05-04T16:36:43.818Z,64.90
2018-05-04T16:39:12.245Z,65.40
2018-05-04T16:41:41.297Z,65.70
2018-05-04T16:44:09.486Z,65.70
2018-05-04T16:46:43.169Z,65.50
2018-05-04T16:49:16.981Z,65.20
2018-05-04T16:51:45.513Z,65.00
2018-05-04T16:54:13.753Z,65.00
2018-05-04T16:56:41.983Z,64.80
2018-05-04T16:59:10.230Z,64.60
2018-05-04T17:01:39.249Z,62.90
2018-05-04T17:04:07.482Z,63.00
2018-05-04T17:06:36.505Z,62.80
2018-05-04T17:09:04.789Z,62.70
2018-05-04T17:11:33.771Z,64.20
2018-05-04T17:14:02.061Z,64.10
2018-05-04T17:16:30.297Z,64.50
2018-05-04T17:18:59.311Z,65.60
2018-05-04T17:21:27.569Z,64.80
2018-05-04T17:23:56.571Z,65.70
2018-05-04T17:26:25.579Z,66.00
2018-05-04T17:28:53.845Z,66.00
2018-05-04T17:31:22.117Z,66.10
2018-05-04T17:33:51.122Z,66.50
2018-05-04T17:36:19.374Z,66.40
2018-05-04T17:38:48.389Z,66.90
2018-05-04T17:41:16.625Z,66.70
2018-05-04T17:43:44.881Z,67.00
2018-05-04T17:46:14.242Z,67.30
2018-05-04T17:48:42.478Z,67.30
2018-05-04T17:51:10.723Z,67.10
2018-05-04T17:53:39.177Z,67.50
2018-05-04T17:56:07.417Z,67.50
2018-05-04T17:58:35.749Z,67.80
2018-05-04T18:01:04.034Z,67.70
2018-05-04T18:03:32.604Z,68.00
2018-05-04T18:06:00.854Z,67.90
2018-05-04T18:08:29.857Z,68.10
2018-05-04T18:10:58.117Z,68.10
2018-05-04T18:13:27.142Z,68.20
2018-05-04T18:15:55.593Z,68.20
2018-05-04T18:18:24.615Z,68.40
2018-05-04T18:20:52.847Z,68.40
2018-05-04T18:23:21.885Z,68.60
2018-05-04T18:25:50.125Z,68.50
2018-05-04T18:28:19.148Z,69.10
2018-05-04T18:30:47.394Z,69.00
2018-05-04T18:33:16.414Z,69.40
2018-05-04T18:35:44.665Z,69.40
2018-05-04T18:38:13.677Z,69.80
2018-05-04T18:40:41.930Z,69.70
2018-05-04T18:43:10.943Z,70.20
2018-05-04T18:45:39.260Z,70.00
2018-05-04T18:48:07.508Z,70.10
2018-05-04T18:50:35.754Z,70.20
2018-05-04T18:53:04.771Z,70.70
2018-05-04T18:55:33.026Z,70.60
2018-05-04T18:58:02.035Z,70.80
2018-05-04T19:00:30.285Z,70.70
2018-05-04T19:03:04.622Z,71.10
2018-05-04T19:05:33.831Z,71.00
2018-05-04T19:08:02.113Z,70.80
2018-05-04T19:10:30.297Z,71.00
2018-05-04T19:12:58.545Z,70.90
2018-05-04T19:15:26.793Z,71.00
2018-05-04T19:17:55.050Z,71.00
2018-05-04T19:20:23.299Z,71.80
2018-05-04T19:22:51.559Z,71.10
2018-05-04T19:25:19.795Z,71.10
2018-05-04T19:27:48.041Z,71.40
2018-05-04T19:30:16.288Z,71.90
2018-05-04T19:32:44.550Z,71.40
2018-05-04T19:35:12.794Z,71.40
2018-05-04T19:37:41.052Z,71.50
2018-05-04T19:40:09.301Z,71.70
2018-05-04T19:42:37.541Z,71.90
2018-05-04T19:45:06.557Z,71.90
2018-05-04T19:47:34.806Z,71.90
2018-05-04T19:50:03.825Z,72.10
2018-05-04T19:52:32.104Z,72.10
2018-05-04T19:55:00.316Z,72.20
2018-05-04T19:57:28.563Z,73.20
2018-05-04T19:59:56.829Z,72.80
2018-05-04T20:02:25.087Z,72.80
2018-05-04T20:04:54.113Z,72.70
2018-05-04T20:07:22.389Z,72.70
2018-05-04T20:09:50.618Z,72.80
2018-05-04T20:12:19.635Z,73.00
2018-05-04T20:14:48.132Z,72.80
2018-05-04T20:17:16.367Z,72.70
2018-05-04T20:19:45.373Z,72.80
2018-05-04T20:22:14.395Z,72.70
2018-05-04T20:24:42.638Z,72.70
2018-05-04T20:27:11.661Z,72.90
2018-05-04T20:29:39.897Z,72.90
2018-05-04T20:32:08.194Z,73.10
2018-05-04T20:34:36.466Z,73.20
2018-05-04T20:37:05.478Z,73.40
2018-05-04T20:39:33.783Z,73.40
2018-05-04T20:42:02.037Z,73.60
2018-05-04T20:44:30.302Z,73.80
2018-05-04T20:46:58.553Z,73.90
2018-05-04T20:49:27.568Z,74.20
2018-05-04T20:51:55.887Z,74.10
2018-05-04T20:54:24.822Z,74.60
2018-05-04T20:56:53.918Z,74.40
2018-05-04T20:59:23.045Z,74.50
2018-05-04T21:01:51.291Z,74.40
2018-05-04T21:04:20.381Z,74.40
2018-05-04T21:06:49.405Z,74.50
2018-05-04T21:09:17.637Z,74.50
2018-05-04T21:11:46.685Z,74.50
2018-05-04T21:14:14.924Z,74.50
2018-05-04T21:16:43.921Z,74.60
2018-05-04T21:19:12.180Z,74.60
2018-05-04T21:21:41.197Z,75.60
2018-05-04T21:24:09.440Z,74.80
2018-05-04T21:26:37.694Z,74.90
2018-05-04T21:29:05.963Z,75.80
2018-05-04T21:31:34.222Z,75.10
2018-05-04T21:34:02.469Z,75.20
2018-05-04T21:36:30.721Z,75.20
2018-05-04T21:41:35.074Z,75.30
2018-05-04T21:44:04.091Z,75.20
2018-05-04T21:46:32.329Z,75.10
2018-05-04T21:49:01.350Z,75.40
2018-05-04T21:51:29.596Z,75.40
2018-05-04T21:53:58.598Z,75.50
2018-05-04T21:56:27.627Z,75.60
2018-05-04T21:58:55.878Z,75.60
2018-05-04T22:01:24.136Z,75.60
2018-05-04T22:03:52.495Z,75.70
2018-05-04T22:06:20.771Z,75.60
2018-05-04T22:08:49.022Z,75.70
2018-05-04T22:11:17.289Z,75.80
2018-05-04T22:13:45.525Z,75.80
2018-05-04T22:16:14.534Z,76.90
2018-05-04T22:18:42.788Z,76.20
2018-05-04T22:21:11.794Z,76.20
2018-05-04T22:23:40.051Z,76.10
2018-05-04T22:26:09.066Z,75.90
2018-05-04T22:28:37.306Z,75.90
2018-05-04T22:31:05.553Z,76.00
2018-05-04T22:33:33.801Z,76.00
2018-05-04T22:36:02.046Z,76.20
2018-05-04T22:38:31.054Z,76.10
2018-05-04T22:41:00.071Z,76.20
2018-05-04T22:43:28.326Z,76.20
2018-05-04T22:45:56.586Z,76.20
2018-05-04T22:48:24.832Z,76.20
2018-05-04T22:50:53.080Z,76.40
2018-05-04T22:53:21.330Z,76.50
2018-05-04T22:55:50.333Z,76.50
2018-05-04T22:58:18.592Z,76.60
2018-05-04T23:00:47.597Z,76.70
2018-05-04T23:03:15.850Z,76.60
2018-05-04T23:05:44.857Z,76.60
2018-05-04T23:08:14.162Z,76.70
2018-05-04T23:10:42.404Z,76.70
2018-05-04T23:13:10.645Z,76.80
2018-05-04T23:15:38.899Z,76.80
2018-05-04T23:18:07.151Z,76.80
2018-05-04T23:20:36.158Z,76.80
2018-05-04T23:23:04.401Z,76.70
2018-05-04T23:25:32.650Z,76.90
2018-05-04T23:28:00.886Z,76.90
2018-05-04T23:30:29.905Z,76.80
2018-05-04T23:32:58.150Z,76.70
2018-05-04T23:35:27.153Z,76.50
2018-05-04T23:37:55.411Z,76.50
2018-05-04T23:40:24.418Z,76.60
2018-05-04T23:42:52.681Z,76.60
2018-05-04T23:45:21.689Z,77.00
2018-05-04T23:47:49.937Z,77.00
2018-05-04T23:50:19.100Z,77.10
2018-05-04T23:52:47.353Z,76.90
2018-05-04T23:55:15.592Z,77.00
2018-05-04T23:57:44.605Z,76.90
